sensor_id;sensor_type;location;lat;lon;timestamp;P1;durP1;ratioP1;P2;durP2;ratioP2
20154;SDS011;10238;49.556;10.956;2022-10-12T00:00:49;13.60;;;7.72;;
20154;SDS011;10238;49.556;10.956;2022-10-12T00:03:37;12.82;;;7.25;;
20154;SDS011;10238;49.556;10.956;2022-10-12T00:06:25;11.77;;;6.43;;
20154;SDS011;10238;49.556;10.956;2022-10-12T00:09:13;8.13;;;6.10;;
20154;SDS011;10238;49.556;10.956;2022-10-12T00:12:02;12.40;;;6.43;;
20154;SDS011;10238;49.556;10.956;2022-10-12T00:14:50;9.50;;;5.85;;
20154;SDS011;10238;49.556;10.956;2022-10-12T00:17:39;8.52;;;6.53;;
20154;SDS011;10238;49.556;10.956;2022-10-12T00:20:27;11.35;;;6.68;;
20154;SDS011;10238;49.556;10.956;2022-10-12T00:23:16;9.40;;;6.53;;
20154;SDS011;10238;49.556;10.956;2022-10-12T00:26:04;10.07;;;6.15;;
20154;SDS011;10238;49.556;10.956;2022-10-12T00:28:55;8.73;;;6.15;;
20154;SDS011;10238;49.556;10.956;2022-10-12T00:31:44;12.65;;;6.45;;
20154;SDS011;10238;49.556;10.956;2022-10-12T00:34:33;9.30;;;6.68;;
20154;SDS011;10238;49.556;10.956;2022-10-12T00:37:21;7.90;;;6.20;;
20154;SDS011;10238;49.556;10.956;2022-10-12T00:40:10;15.50;;;6.53;;
20154;SDS011;10238;49.556;10.956;2022-10-12T00:42:58;9.02;;;5.72;;
20154;SDS011;10238;49.556;10.956;2022-10-12T00:45:46;11.85;;;6.20;;
20154;SDS011;10238;49.556;10.956;2022-10-12T00:48:34;9.05;;;6.13;;
20154;SDS011;10238;49.556;10.956;2022-10-12T00:51:24;10.85;;;6.45;;
20154;SDS011;10238;49.556;10.956;2022-10-12T00:54:13;11.50;;;6.90;;
20154;SDS011;10238;49.556;10.956;2022-10-12T00:57:07;11.90;;;6.90;;
20154;SDS011;10238;49.556;10.956;2022-10-12T00:59:59;10.45;;;6.50;;
20154;SDS011;10238;49.556;10.956;2022-10-12T01:02:50;9.32;;;6.70;;
20154;SDS011;10238;49.556;10.956;2022-10-12T01:05:39;11.10;;;6.85;;
20154;SDS011;10238;49.556;10.956;2022-10-12T01:08:29;10.48;;;6.72;;
20154;SDS011;10238;49.556;10.956;2022-10-12T01:11:16;9.70;;;6.43;;
20154;SDS011;10238;49.556;10.956;2022-10-12T01:14:05;12.27;;;6.72;;
20154;SDS011;10238;49.556;10.956;2022-10-12T01:16:53;8.95;;;6.60;;
20154;SDS011;10238;49.556;10.956;2022-10-12T01:19:56;9.68;;;6.53;;
20154;SDS011;10238;49.556;10.956;2022-10-12T01:23:10;12.77;;;7.35;;
20154;SDS011;10238;49.556;10.956;2022-10-12T01:26:31;9.85;;;5.95;;
20154;SDS011;10238;49.556;10.956;2022-10-12T01:30:01;15.00;;;6.88;;
20154;SDS011;10238;49.556;10.956;2022-10-12T01:33:10;11.55;;;7.00;;
20154;SDS011;10238;49.556;10.956;2022-10-12T01:36:12;9.57;;;6.30;;
20154;SDS011;10238;49.556;10.956;2022-10-12T01:39:07;17.60;;;7.93;;
20154;SDS011;10238;49.556;10.956;2022-10-12T01:42:04;10.73;;;6.68;;
20154;SDS011;10238;49.556;10.956;2022-10-12T01:45:04;10.30;;;7.22;;
20154;SDS011;10238;49.556;10.956;2022-10-12T01:47:53;8.60;;;6.78;;
20154;SDS011;10238;49.556;10.956;2022-10-12T01:50:44;8.35;;;6.53;;
20154;SDS011;10238;49.556;10.956;2022-10-12T01:53:37;13.32;;;7.20;;
20154;SDS011;10238;49.556;10.956;2022-10-12T01:56:30;11.40;;;7.60;;
20154;SDS011;10238;49.556;10.956;2022-10-12T01:59:28;11.68;;;6.88;;
20154;SDS011;10238;49.556;10.956;2022-10-12T02:02:27;9.35;;;6.38;;
20154;SDS011;10238;49.556;10.956;2022-10-12T02:05:23;11.50;;;7.45;;
20154;SDS011;10238;49.556;10.956;2022-10-12T02:08:22;14.25;;;6.78;;
20154;SDS011;10238;49.556;10.956;2022-10-12T02:11:14;12.80;;;6.20;;
20154;SDS011;10238;49.556;10.956;2022-10-12T02:14:07;9.98;;;7.75;;
20154;SDS011;10238;49.556;10.956;2022-10-12T02:17:01;9.57;;;7.13;;
20154;SDS011;10238;49.556;10.956;2022-10-12T02:19:56;14.10;;;7.55;;
20154;SDS011;10238;49.556;10.956;2022-10-12T02:22:46;11.18;;;7.68;;
20154;SDS011;10238;49.556;10.956;2022-10-12T02:25:36;12.35;;;7.50;;
20154;SDS011;10238;49.556;10.956;2022-10-12T02:28:26;15.27;;;7.25;;
20154;SDS011;10238;49.556;10.956;2022-10-12T02:31:17;10.45;;;6.97;;
20154;SDS011;10238;49.556;10.956;2022-10-12T02:34:11;11.25;;;6.82;;
20154;SDS011;10238;49.556;10.956;2022-10-12T02:37:05;12.20;;;7.53;;
20154;SDS011;10238;49.556;10.956;2022-10-12T02:39:59;8.55;;;6.70;;
20154;SDS011;10238;49.556;10.956;2022-10-12T02:42:53;9.85;;;7.35;;
20154;SDS011;10238;49.556;10.956;2022-10-12T02:45:55;13.20;;;7.13;;
20154;SDS011;10238;49.556;10.956;2022-10-12T02:48:46;10.45;;;7.35;;
20154;SDS011;10238;49.556;10.956;2022-10-12T02:51:35;9.85;;;7.35;;
20154;SDS011;10238;49.556;10.956;2022-10-12T02:54:27;11.57;;;7.32;;
20154;SDS011;10238;49.556;10.956;2022-10-12T02:57:18;12.47;;;7.07;;
20154;SDS011;10238;49.556;10.956;2022-10-12T03:00:06;18.88;;;7.78;;
20154;SDS011;10238;49.556;10.956;2022-10-12T03:02:56;12.85;;;7.40;;
20154;SDS011;10238;49.556;10.956;2022-10-12T03:05:43;9.23;;;7.18;;
20154;SDS011;10238;49.556;10.956;2022-10-12T03:08:31;10.32;;;6.95;;
20154;SDS011;10238;49.556;10.956;2022-10-12T03:11:21;14.43;;;7.03;;
20154;SDS011;10238;49.556;10.956;2022-10-12T03:14:09;13.35;;;7.38;;
20154;SDS011;10238;49.556;10.956;2022-10-12T03:16:59;13.73;;;7.38;;
20154;SDS011;10238;49.556;10.956;2022-10-12T03:19:47;17.80;;;7.90;;
20154;SDS011;10238;49.556;10.956;2022-10-12T03:22:35;13.27;;;7.65;;
20154;SDS011;10238;49.556;10.956;2022-10-12T03:25:23;12.65;;;7.40;;
20154;SDS011;10238;49.556;10.956;2022-10-12T03:28:13;12.65;;;7.15;;
20154;SDS011;10238;49.556;10.956;2022-10-12T03:31:01;14.27;;;8.38;;
20154;SDS011;10238;49.556;10.956;2022-10-12T03:33:49;14.18;;;8.30;;
20154;SDS011;10238;49.556;10.956;2022-10-12T03:36:37;15.90;;;8.00;;
20154;SDS011;10238;49.556;10.956;2022-10-12T03:39:25;14.23;;;6.70;;
20154;SDS011;10238;49.556;10.956;2022-10-12T03:42:13;13.20;;;8.18;;
20154;SDS011;10238;49.556;10.956;2022-10-12T03:45:03;14.35;;;7.65;;
20154;SDS011;10238;49.556;10.956;2022-10-12T03:47:51;15.02;;;8.90;;
20154;SDS011;10238;49.556;10.956;2022-10-12T03:50:39;12.02;;;8.07;;
20154;SDS011;10238;49.556;10.956;2022-10-12T03:53:27;11.60;;;7.47;;
20154;SDS011;10238;49.556;10.956;2022-10-12T03:56:15;10.10;;;7.32;;
20154;SDS011;10238;49.556;10.956;2022-10-12T03:59:03;13.73;;;7.55;;
20154;SDS011;10238;49.556;10.956;2022-10-12T04:01:52;15.00;;;8.10;;
20154;SDS011;10238;49.556;10.956;2022-10-12T04:04:40;10.27;;;7.45;;
20154;SDS011;10238;49.556;10.956;2022-10-12T04:07:28;10.75;;;7.47;;
20154;SDS011;10238;49.556;10.956;2022-10-12T04:10:16;15.73;;;8.07;;
20154;SDS011;10238;49.556;10.956;2022-10-12T04:13:04;11.35;;;6.93;;
20154;SDS011;10238;49.556;10.956;2022-10-12T04:15:52;11.15;;;7.45;;
20154;SDS011;10238;49.556;10.956;2022-10-12T04:18:41;16.90;;;7.93;;
20154;SDS011;10238;49.556;10.956;2022-10-12T04:21:29;11.43;;;7.82;;
20154;SDS011;10238;49.556;10.956;2022-10-12T04:24:19;11.02;;;7.72;;
20154;SDS011;10238;49.556;10.956;2022-10-12T04:27:07;13.13;;;7.72;;
20154;SDS011;10238;49.556;10.956;2022-10-12T04:29:55;12.68;;;7.93;;
20154;SDS011;10238;49.556;10.956;2022-10-12T04:32:43;12.77;;;8.35;;
20154;SDS011;10238;49.556;10.956;2022-10-12T04:35:32;17.23;;;9.43;;
20154;SDS011;10238;49.556;10.956;2022-10-12T04:38:21;16.35;;;8.85;;
20154;SDS011;10238;49.556;10.956;2022-10-12T04:41:08;13.75;;;8.00;;
20154;SDS011;10238;49.556;10.956;2022-10-12T04:43:56;12.65;;;8.27;;
20154;SDS011;10238;49.556;10.956;2022-10-12T04:46:45;11.40;;;8.48;;
20154;SDS011;10238;49.556;10.956;2022-10-12T04:49:33;10.15;;;7.55;;
20154;SDS011;10238;49.556;10.956;2022-10-12T04:52:23;10.68;;;7.80;;
20154;SDS011;10238;49.556;10.956;2022-10-12T04:55:12;12.75;;;7.32;;
20154;SDS011;10238;49.556;10.956;2022-10-12T04:58:00;15.20;;;7.90;;
20154;SDS011;10238;49.556;10.956;2022-10-12T05:00:48;11.93;;;7.60;;
20154;SDS011;10238;49.556;10.956;2022-10-12T05:03:36;14.73;;;8.27;;
20154;SDS011;10238;49.556;10.956;2022-10-12T05:06:26;12.52;;;7.55;;
20154;SDS011;10238;49.556;10.956;2022-10-12T05:09:19;15.85;;;8.30;;
20154;SDS011;10238;49.556;10.956;2022-10-12T05:12:06;15.93;;;7.83;;
20154;SDS011;10238;49.556;10.956;2022-10-12T05:14:57;11.15;;;7.60;;
20154;SDS011;10238;49.556;10.956;2022-10-12T05:17:45;11.35;;;7.97;;
20154;SDS011;10238;49.556;10.956;2022-10-12T05:20:33;15.75;;;8.00;;
20154;SDS011;10238;49.556;10.956;2022-10-12T05:23:22;14.23;;;8.07;;
20154;SDS011;10238;49.556;10.956;2022-10-12T05:26:13;11.55;;;8.20;;
20154;SDS011;10238;49.556;10.956;2022-10-12T05:29:01;12.80;;;7.78;;
20154;SDS011;10238;49.556;10.956;2022-10-12T05:31:58;10.75;;;7.28;;
20154;SDS011;10238;49.556;10.956;2022-10-12T05:34:46;9.75;;;7.20;;
20154;SDS011;10238;49.556;10.956;2022-10-12T05:37:35;18.20;;;8.48;;
20154;SDS011;10238;49.556;10.956;2022-10-12T05:40:23;12.95;;;7.60;;
20154;SDS011;10238;49.556;10.956;2022-10-12T05:43:12;12.07;;;7.50;;
20154;SDS011;10238;49.556;10.956;2022-10-12T05:46:00;17.27;;;7.50;;
20154;SDS011;10238;49.556;10.956;2022-10-12T05:48:49;11.35;;;7.47;;
20154;SDS011;10238;49.556;10.956;2022-10-12T05:51:37;9.57;;;6.93;;
20154;SDS011;10238;49.556;10.956;2022-10-12T05:54:25;11.18;;;7.28;;
20154;SDS011;10238;49.556;10.956;2022-10-12T05:57:13;13.82;;;7.05;;
20154;SDS011;10238;49.556;10.956;2022-10-12T06:00:03;11.45;;;7.07;;
20154;SDS011;10238;49.556;10.956;2022-10-12T06:02:52;14.00;;;7.18;;
20154;SDS011;10238;49.556;10.956;2022-10-12T06:05:41;12.50;;;7.50;;
20154;SDS011;10238;49.556;10.956;2022-10-12T06:08:29;12.63;;;7.40;;
20154;SDS011;10238;49.556;10.956;2022-10-12T06:11:17;15.05;;;7.05;;
20154;SDS011;10238;49.556;10.956;2022-10-12T06:14:05;13.07;;;7.60;;
20154;SDS011;10238;49.556;10.956;2022-10-12T06:16:55;16.42;;;7.60;;
20154;SDS011;10238;49.556;10.956;2022-10-12T06:19:43;16.70;;;7.57;;
20154;SDS011;10238;49.556;10.956;2022-10-12T06:22:31;15.02;;;7.32;;
20154;SDS011;10238;49.556;10.956;2022-10-12T06:25:19;13.10;;;7.88;;
20154;SDS011;10238;49.556;10.956;2022-10-12T06:28:06;12.45;;;7.20;;
20154;SDS011;10238;49.556;10.956;2022-10-12T06:30:55;10.63;;;6.85;;
20154;SDS011;10238;49.556;10.956;2022-10-12T06:33:49;11.88;;;7.38;;
20154;SDS011;10238;49.556;10.956;2022-10-12T06:36:39;13.02;;;7.60;;
20154;SDS011;10238;49.556;10.956;2022-10-12T06:39:27;10.65;;;6.97;;
20154;SDS011;10238;49.556;10.956;2022-10-12T06:42:15;13.40;;;7.72;;
20154;SDS011;10238;49.556;10.956;2022-10-12T06:45:03;11.63;;;7.25;;
20154;SDS011;10238;49.556;10.956;2022-10-12T06:47:51;13.75;;;7.57;;
20154;SDS011;10238;49.556;10.956;2022-10-12T06:50:41;14.32;;;7.20;;
20154;SDS011;10238;49.556;10.956;2022-10-12T06:53:28;12.70;;;7.10;;
20154;SDS011;10238;49.556;10.956;2022-10-12T06:56:17;12.63;;;7.18;;
20154;SDS011;10238;49.556;10.956;2022-10-12T06:59:06;15.57;;;8.00;;
20154;SDS011;10238;49.556;10.956;2022-10-12T07:01:54;17.88;;;7.70;;
20154;SDS011;10238;49.556;10.956;2022-10-12T07:04:42;20.95;;;7.72;;
20154;SDS011;10238;49.556;10.956;2022-10-12T07:07:32;14.75;;;7.55;;
20154;SDS011;10238;49.556;10.956;2022-10-12T07:10:21;17.40;;;8.10;;
20154;SDS011;10238;49.556;10.956;2022-10-12T07:13:10;12.50;;;7.60;;
20154;SDS011;10238;49.556;10.956;2022-10-12T07:15:58;14.38;;;8.52;;
20154;SDS011;10238;49.556;10.956;2022-10-12T07:18:46;15.73;;;7.82;;
20154;SDS011;10238;49.556;10.956;2022-10-12T07:21:34;13.98;;;7.90;;
20154;SDS011;10238;49.556;10.956;2022-10-12T07:24:23;14.43;;;8.52;;
20154;SDS011;10238;49.556;10.956;2022-10-12T07:27:20;12.18;;;7.05;;
20154;SDS011;10238;49.556;10.956;2022-10-12T07:30:09;10.77;;;6.90;;
20154;SDS011;10238;49.556;10.956;2022-10-12T07:32:58;12.40;;;7.28;;
20154;SDS011;10238;49.556;10.956;2022-10-12T07:35:52;11.93;;;7.80;;
20154;SDS011;10238;49.556;10.956;2022-10-12T07:38:59;15.18;;;8.10;;
20154;SDS011;10238;49.556;10.956;2022-10-12T07:41:49;12.25;;;6.55;;
20154;SDS011;10238;49.556;10.956;2022-10-12T07:44:37;14.50;;;7.65;;
20154;SDS011;10238;49.556;10.956;2022-10-12T07:47:24;12.65;;;7.78;;
20154;SDS011;10238;49.556;10.956;2022-10-12T07:50:12;12.18;;;7.60;;
20154;SDS011;10238;49.556;10.956;2022-10-12T07:53:01;14.85;;;8.30;;
20154;SDS011;10238;49.556;10.956;2022-10-12T07:55:49;14.45;;;8.15;;
20154;SDS011;10238;49.556;10.956;2022-10-12T07:58:39;12.63;;;8.63;;
20154;SDS011;10238;49.556;10.956;2022-10-12T08:01:28;19.63;;;10.10;;
20154;SDS011;10238;49.556;10.956;2022-10-12T08:04:17;13.90;;;7.38;;
20154;SDS011;10238;49.556;10.956;2022-10-12T08:07:05;19.17;;;7.95;;
20154;SDS011;10238;49.556;10.956;2022-10-12T08:09:53;17.05;;;9.13;;
20154;SDS011;10238;49.556;10.956;2022-10-12T08:12:41;15.38;;;8.50;;
20154;SDS011;10238;49.556;10.956;2022-10-12T08:15:38;9.90;;;6.78;;
20154;SDS011;10238;49.556;10.956;2022-10-12T08:18:26;15.82;;;8.48;;
20154;SDS011;10238;49.556;10.956;2022-10-12T08:21:15;13.68;;;7.50;;
20154;SDS011;10238;49.556;10.956;2022-10-12T08:24:03;14.60;;;8.43;;
20154;SDS011;10238;49.556;10.956;2022-10-12T08:26:52;13.18;;;7.57;;
20154;SDS011;10238;49.556;10.956;2022-10-12T08:29:45;17.77;;;9.90;;
20154;SDS011;10238;49.556;10.956;2022-10-12T08:32:35;14.20;;;9.95;;
20154;SDS011;10238;49.556;10.956;2022-10-12T08:35:23;12.57;;;8.63;;
20154;SDS011;10238;49.556;10.956;2022-10-12T08:38:11;14.77;;;9.13;;
20154;SDS011;10238;49.556;10.956;2022-10-12T08:41:01;13.38;;;8.85;;
20154;SDS011;10238;49.556;10.956;2022-10-12T08:44:00;20.27;;;9.98;;
20154;SDS011;10238;49.556;10.956;2022-10-12T08:47:03;15.27;;;9.15;;
20154;SDS011;10238;49.556;10.956;2022-10-12T08:49:58;16.58;;;9.40;;
20154;SDS011;10238;49.556;10.956;2022-10-12T08:52:50;17.55;;;10.10;;
20154;SDS011;10238;49.556;10.956;2022-10-12T08:55:42;16.13;;;9.35;;
20154;SDS011;10238;49.556;10.956;2022-10-12T08:58:32;14.93;;;8.25;;
20154;SDS011;10238;49.556;10.956;2022-10-12T09:01:24;15.57;;;8.77;;
20154;SDS011;10238;49.556;10.956;2022-10-12T09:04:23;14.30;;;9.18;;
20154;SDS011;10238;49.556;10.956;2022-10-12T09:07:34;19.27;;;11.23;;
20154;SDS011;10238;49.556;10.956;2022-10-12T09:10:28;14.98;;;8.77;;
20154;SDS011;10238;49.556;10.956;2022-10-12T09:13:33;16.73;;;9.88;;
20154;SDS011;10238;49.556;10.956;2022-10-12T09:16:38;21.02;;;11.88;;
20154;SDS011;10238;49.556;10.956;2022-10-12T09:19:31;19.30;;;12.88;;
20154;SDS011;10238;49.556;10.956;2022-10-12T09:25:12;21.13;;;12.07;;
20154;SDS011;10238;49.556;10.956;2022-10-12T09:28:06;16.35;;;10.98;;
20154;SDS011;10238;49.556;10.956;2022-10-12T09:31:04;18.08;;;11.05;;
20154;SDS011;10238;49.556;10.956;2022-10-12T09:34:03;25.40;;;11.43;;
20154;SDS011;10238;49.556;10.956;2022-10-12T09:36:53;23.67;;;13.13;;
20154;SDS011;10238;49.556;10.956;2022-10-12T09:39:42;23.25;;;12.45;;
20154;SDS011;10238;49.556;10.956;2022-10-12T09:42:31;22.95;;;14.02;;
20154;SDS011;10238;49.556;10.956;2022-10-12T09:45:20;19.85;;;13.30;;
20154;SDS011;10238;49.556;10.956;2022-10-12T09:48:09;14.30;;;10.10;;
20154;SDS011;10238;49.556;10.956;2022-10-12T09:50:59;15.65;;;10.18;;
20154;SDS011;10238;49.556;10.956;2022-10-12T09:53:49;22.92;;;14.25;;
20154;SDS011;10238;49.556;10.956;2022-10-12T09:59:36;15.70;;;11.35;;
20154;SDS011;10238;49.556;10.956;2022-10-12T10:02:29;22.10;;;12.02;;
20154;SDS011;10238;49.556;10.956;2022-10-12T10:05:22;15.43;;;12.05;;
20154;SDS011;10238;49.556;10.956;2022-10-12T10:08:16;16.95;;;12.77;;
20154;SDS011;10238;49.556;10.956;2022-10-12T10:11:06;21.98;;;13.68;;
20154;SDS011;10238;49.556;10.956;2022-10-12T10:14:01;17.52;;;12.27;;
20154;SDS011;10238;49.556;10.956;2022-10-12T10:16:51;25.08;;;14.40;;
20154;SDS011;10238;49.556;10.956;2022-10-12T10:19:40;24.98;;;14.30;;
20154;SDS011;10238;49.556;10.956;2022-10-12T10:22:35;25.42;;;15.38;;
20154;SDS011;10238;49.556;10.956;2022-10-12T10:25:32;20.98;;;13.50;;
20154;SDS011;10238;49.556;10.956;2022-10-12T10:28:40;25.23;;;15.57;;
20154;SDS011;10238;49.556;10.956;2022-10-12T10:31:30;24.20;;;15.45;;
20154;SDS011;10238;49.556;10.956;2022-10-12T10:34:21;20.58;;;14.35;;
20154;SDS011;10238;49.556;10.956;2022-10-12T10:37:12;20.95;;;14.57;;
20154;SDS011;10238;49.556;10.956;2022-10-12T10:40:05;18.00;;;12.32;;
20154;SDS011;10238;49.556;10.956;2022-10-12T10:43:05;21.50;;;15.32;;
20154;SDS011;10238;49.556;10.956;2022-10-12T10:46:03;25.73;;;14.60;;
20154;SDS011;10238;49.556;10.956;2022-10-12T10:48:53;19.13;;;12.45;;
20154;SDS011;10238;49.556;10.956;2022-10-12T10:51:47;23.42;;;16.55;;
20154;SDS011;10238;49.556;10.956;2022-10-12T10:54:38;22.23;;;15.35;;
20154;SDS011;10238;49.556;10.956;2022-10-12T10:57:26;24.50;;;16.70;;
20154;SDS011;10238;49.556;10.956;2022-10-12T11:00:15;20.73;;;15.23;;
20154;SDS011;10238;49.556;10.956;2022-10-12T11:03:24;21.83;;;12.73;;
20154;SDS011;10238;49.556;10.956;2022-10-12T11:06:17;21.33;;;14.90;;
20154;SDS011;10238;49.556;10.956;2022-10-12T11:09:12;19.40;;;13.50;;
20154;SDS011;10238;49.556;10.956;2022-10-12T11:12:05;26.10;;;13.48;;
20154;SDS011;10238;49.556;10.956;2022-10-12T11:15:00;21.98;;;13.18;;
20154;SDS011;10238;49.556;10.956;2022-10-12T11:17:56;25.38;;;14.52;;
20154;SDS011;10238;49.556;10.956;2022-10-12T11:20:50;24.10;;;15.07;;
20154;SDS011;10238;49.556;10.956;2022-10-12T11:23:43;27.73;;;16.90;;
20154;SDS011;10238;49.556;10.956;2022-10-12T11:26:38;17.83;;;14.20;;
20154;SDS011;10238;49.556;10.956;2022-10-12T11:29:30;21.27;;;13.38;;
20154;SDS011;10238;49.556;10.956;2022-10-12T11:32:23;22.52;;;13.45;;
20154;SDS011;10238;49.556;10.956;2022-10-12T11:35:16;18.63;;;14.00;;
20154;SDS011;10238;49.556;10.956;2022-10-12T11:38:13;18.30;;;12.35;;
20154;SDS011;10238;49.556;10.956;2022-10-12T11:41:07;19.17;;;13.98;;
20154;SDS011;10238;49.556;10.956;2022-10-12T11:44:20;26.52;;;15.57;;
20154;SDS011;10238;49.556;10.956;2022-10-12T11:47:16;22.80;;;15.93;;
20154;SDS011;10238;49.556;10.956;2022-10-12T11:50:19;19.27;;;13.18;;
20154;SDS011;10238;49.556;10.956;2022-10-12T11:53:15;23.63;;;14.15;;
20154;SDS011;10238;49.556;10.956;2022-10-12T11:56:10;27.95;;;17.55;;
20154;SDS011;10238;49.556;10.956;2022-10-12T11:59:04;18.10;;;11.80;;
20154;SDS011;10238;49.556;10.956;2022-10-12T12:02:09;23.83;;;16.23;;
20154;SDS011;10238;49.556;10.956;2022-10-12T12:05:03;20.65;;;15.07;;
20154;SDS011;10238;49.556;10.956;2022-10-12T12:08:01;24.45;;;16.80;;
20154;SDS011;10238;49.556;10.956;2022-10-12T12:11:02;17.17;;;12.13;;
20154;SDS011;10238;49.556;10.956;2022-10-12T12:20:00;16.27;;;10.55;;
20154;SDS011;10238;49.556;10.956;2022-10-12T12:23:18;23.90;;;16.30;;
20154;SDS011;10238;49.556;10.956;2022-10-12T12:26:13;18.23;;;13.88;;
20154;SDS011;10238;49.556;10.956;2022-10-12T12:29:07;17.50;;;11.35;;
20154;SDS011;10238;49.556;10.956;2022-10-12T12:31:57;21.02;;;14.32;;
20154;SDS011;10238;49.556;10.956;2022-10-12T12:34:48;15.80;;;9.60;;
20154;SDS011;10238;49.556;10.956;2022-10-12T12:37:45;24.27;;;14.60;;
20154;SDS011;10238;49.556;10.956;2022-10-12T12:40:36;21.83;;;14.68;;
20154;SDS011;10238;49.556;10.956;2022-10-12T12:50:25;19.40;;;12.48;;
20154;SDS011;10238;49.556;10.956;2022-10-12T12:53:19;18.90;;;13.60;;
20154;SDS011;10238;49.556;10.956;2022-10-12T12:56:13;21.42;;;12.40;;
20154;SDS011;10238;49.556;10.956;2022-10-12T12:59:23;16.70;;;11.80;;
20154;SDS011;10238;49.556;10.956;2022-10-12T13:06:03;21.27;;;12.48;;
20154;SDS011;10238;49.556;10.956;2022-10-12T13:09:36;18.13;;;12.55;;
20154;SDS011;10238;49.556;10.956;2022-10-12T13:12:40;17.55;;;12.77;;
20154;SDS011;10238;49.556;10.956;2022-10-12T13:15:50;17.48;;;13.20;;
20154;SDS011;10238;49.556;10.956;2022-10-12T13:18:47;18.40;;;12.15;;
20154;SDS011;10238;49.556;10.956;2022-10-12T13:21:41;14.07;;;11.30;;
20154;SDS011;10238;49.556;10.956;2022-10-12T13:24:33;19.38;;;13.02;;
20154;SDS011;10238;49.556;10.956;2022-10-12T13:27:29;15.27;;;11.52;;
20154;SDS011;10238;49.556;10.956;2022-10-12T13:30:26;14.55;;;10.93;;
20154;SDS011;10238;49.556;10.956;2022-10-12T13:33:20;15.00;;;11.82;;
20154;SDS011;10238;49.556;10.956;2022-10-12T13:36:19;17.90;;;12.18;;
20154;SDS011;10238;49.556;10.956;2022-10-12T13:39:13;20.40;;;12.48;;
20154;SDS011;10238;49.556;10.956;2022-10-12T13:42:02;15.27;;;11.77;;
20154;SDS011;10238;49.556;10.956;2022-10-12T13:44:50;13.57;;;11.02;;
20154;SDS011;10238;49.556;10.956;2022-10-12T13:47:41;18.70;;;13.07;;
20154;SDS011;10238;49.556;10.956;2022-10-12T13:50:29;19.05;;;12.23;;
20154;SDS011;10238;49.556;10.956;2022-10-12T13:53:17;14.10;;;11.95;;
20154;SDS011;10238;49.556;10.956;2022-10-12T13:56:07;17.45;;;13.43;;
20154;SDS011;10238;49.556;10.956;2022-10-12T13:59:00;23.35;;;13.93;;
20154;SDS011;10238;49.556;10.956;2022-10-12T14:01:57;18.00;;;13.07;;
20154;SDS011;10238;49.556;10.956;2022-10-12T14:04:47;15.52;;;10.10;;
20154;SDS011;10238;49.556;10.956;2022-10-12T14:10:27;18.05;;;12.85;;
20154;SDS011;10238;49.556;10.956;2022-10-12T14:13:21;21.60;;;14.40;;
20154;SDS011;10238;49.556;10.956;2022-10-12T14:16:13;20.27;;;11.85;;
20154;SDS011;10238;49.556;10.956;2022-10-12T14:19:16;20.13;;;12.98;;
20154;SDS011;10238;49.556;10.956;2022-10-12T14:22:06;22.30;;;13.65;;
20154;SDS011;10238;49.556;10.956;2022-10-12T14:25:08;19.52;;;13.18;;
20154;SDS011;10238;49.556;10.956;2022-10-12T14:28:02;19.65;;;12.30;;
20154;SDS011;10238;49.556;10.956;2022-10-12T14:30:52;17.67;;;11.90;;
20154;SDS011;10238;49.556;10.956;2022-10-12T14:33:40;19.33;;;13.90;;
20154;SDS011;10238;49.556;10.956;2022-10-12T14:36:28;23.02;;;13.00;;
20154;SDS011;10238;49.556;10.956;2022-10-12T14:39:18;22.00;;;13.23;;
20154;SDS011;10238;49.556;10.956;2022-10-12T14:42:16;20.58;;;14.43;;
20154;SDS011;10238;49.556;10.956;2022-10-12T14:45:21;24.20;;;13.98;;
20154;SDS011;10238;49.556;10.956;2022-10-12T14:48:11;20.52;;;13.95;;
20154;SDS011;10238;49.556;10.956;2022-10-12T14:51:03;23.40;;;15.10;;
20154;SDS011;10238;49.556;10.956;2022-10-12T14:53:59;20.95;;;13.93;;
20154;SDS011;10238;49.556;10.956;2022-10-12T14:56:51;22.05;;;14.43;;
20154;SDS011;10238;49.556;10.956;2022-10-12T14:59:39;20.60;;;13.82;;
20154;SDS011;10238;49.556;10.956;2022-10-12T15:02:28;22.67;;;15.13;;
20154;SDS011;10238;49.556;10.956;2022-10-12T15:05:19;27.17;;;15.65;;
20154;SDS011;10238;49.556;10.956;2022-10-12T15:08:08;21.90;;;15.23;;
20154;SDS011;10238;49.556;10.956;2022-10-12T15:10:56;23.50;;;15.52;;
20154;SDS011;10238;49.556;10.956;2022-10-12T15:13:45;24.38;;;15.13;;
20154;SDS011;10238;49.556;10.956;2022-10-12T15:16:33;24.63;;;16.02;;
20154;SDS011;10238;49.556;10.956;2022-10-12T15:19:21;25.95;;;15.68;;
20154;SDS011;10238;49.556;10.956;2022-10-12T15:22:09;29.38;;;15.95;;
20154;SDS011;10238;49.556;10.956;2022-10-12T15:25:04;28.10;;;16.98;;
20154;SDS011;10238;49.556;10.956;2022-10-12T15:28:04;32.40;;;16.30;;
20154;SDS011;10238;49.556;10.956;2022-10-12T15:30:53;24.80;;;16.25;;
20154;SDS011;10238;49.556;10.956;2022-10-12T15:34:02;38.30;;;19.98;;
20154;SDS011;10238;49.556;10.956;2022-10-12T15:39:42;27.50;;;17.77;;
20154;SDS011;10238;49.556;10.956;2022-10-12T15:42:30;27.55;;;17.20;;
20154;SDS011;10238;49.556;10.956;2022-10-12T15:45:19;26.50;;;18.15;;
20154;SDS011;10238;49.556;10.956;2022-10-12T15:48:10;27.30;;;17.33;;
20154;SDS011;10238;49.556;10.956;2022-10-12T15:50:58;26.98;;;16.80;;
20154;SDS011;10238;49.556;10.956;2022-10-12T15:53:46;26.20;;;17.38;;
20154;SDS011;10238;49.556;10.956;2022-10-12T15:56:34;26.85;;;15.65;;
20154;SDS011;10238;49.556;10.956;2022-10-12T15:59:22;23.95;;;16.90;;
20154;SDS011;10238;49.556;10.956;2022-10-12T16:02:10;26.98;;;15.90;;
20154;SDS011;10238;49.556;10.956;2022-10-12T16:05:00;26.77;;;18.02;;
20154;SDS011;10238;49.556;10.956;2022-10-12T16:07:48;24.27;;;15.77;;
20154;SDS011;10238;49.556;10.956;2022-10-12T16:10:37;27.33;;;18.42;;
20154;SDS011;10238;49.556;10.956;2022-10-12T16:13:26;28.15;;;18.30;;
20154;SDS011;10238;49.556;10.956;2022-10-12T16:16:15;30.15;;;18.63;;
20154;SDS011;10238;49.556;10.956;2022-10-12T16:19:03;28.83;;;18.88;;
20154;SDS011;10238;49.556;10.956;2022-10-12T16:21:52;28.83;;;18.23;;
20154;SDS011;10238;49.556;10.956;2022-10-12T16:24:41;29.02;;;17.08;;
20154;SDS011;10238;49.556;10.956;2022-10-12T16:27:30;27.38;;;17.45;;
20154;SDS011;10238;49.556;10.956;2022-10-12T16:30:18;27.08;;;16.83;;
20154;SDS011;10238;49.556;10.956;2022-10-12T16:33:07;32.38;;;17.50;;
20154;SDS011;10238;49.556;10.956;2022-10-12T16:35:55;25.45;;;16.30;;
20154;SDS011;10238;49.556;10.956;2022-10-12T16:38:45;26.40;;;16.25;;
20154;SDS011;10238;49.556;10.956;2022-10-12T16:41:33;30.75;;;18.88;;
20154;SDS011;10238;49.556;10.956;2022-10-12T16:44:21;25.52;;;16.52;;
20154;SDS011;10238;49.556;10.956;2022-10-12T16:47:12;27.75;;;18.02;;
20154;SDS011;10238;49.556;10.956;2022-10-12T16:50:00;29.08;;;18.77;;
20154;SDS011;10238;49.556;10.956;2022-10-12T16:52:49;26.15;;;18.00;;
20154;SDS011;10238;49.556;10.956;2022-10-12T16:55:38;24.75;;;15.93;;
20154;SDS011;10238;49.556;10.956;2022-10-12T16:58:26;28.50;;;17.05;;
20154;SDS011;10238;49.556;10.956;2022-10-12T17:01:14;38.60;;;20.90;;
20154;SDS011;10238;49.556;10.956;2022-10-12T17:04:03;29.73;;;18.45;;
20154;SDS011;10238;49.556;10.956;2022-10-12T17:06:51;26.20;;;19.08;;